Time;durP1;ratioP1;P1;durP2;ratioP2;P2;SDS_P1;SDS_P2;PMS_P1;PMS_P2;Temp;Humidity;BMP_temperature;BMP_pressure;BME280_temperature;BME280_humidity;BME280_pressure;Samples;Min_cycle;Max_cycle;Signal;HPM_P1;HPM_P2
2022/09/30 00:01:51;;;;;;;1.40;1.30;;;9.30;99.90;;;;;;5074456;28;20231;-49
2022/09/30 00:04:20;;;;;;;1.30;1.07;;;9.30;99.90;;;;;;5092050;28;20198;-49
2022/09/30 00:06:48;;;;;;;1.27;1.27;;;9.30;99.90;;;;;;5083820;28;20207;-49
2022/09/30 00:09:16;;;;;;;1.20;1.10;;;9.40;99.90;;;;;;5085915;28;20831;-49
2022/09/30 00:11:45;;;;;;;1.40;1.40;;;9.40;99.90;;;;;;5086310;28;20196;-48
2022/09/30 00:14:16;;;;;;;1.23;1.23;;;9.40;99.90;;;;;;5087638;28;20196;-48
2022/09/30 00:16:43;;;;;;;2.30;1.70;;;9.40;99.90;;;;;;5088429;28;20199;-50
2022/09/30 00:19:10;;;;;;;1.57;1.57;;;9.40;99.90;;;;;;5092067;28;20222;-49
2022/09/30 00:21:37;;;;;;;1.73;1.63;;;9.50;99.90;;;;;;5092015;28;20704;-49
2022/09/30 00:24:05;;;;;;;2.00;1.60;;;9.50;99.90;;;;;;5089578;28;20204;-48
2022/09/30 00:26:34;;;;;;;2.07;1.80;;;9.40;99.90;;;;;;5080707;28;20664;-49
2022/09/30 00:29:02;;;;;;;2.30;2.13;;;9.40;99.90;;;;;;5086269;28;20225;-47
2022/09/30 00:31:31;;;;;;;1.60;1.53;;;9.40;99.90;;;;;;5086979;28;20202;-48
2022/09/30 00:34:10;;;;;;;1.70;1.70;;;9.40;99.90;;;;;;5091429;28;20660;-49
2022/09/30 00:36:42;;;;;;;2.53;2.33;;;9.40;99.90;;;;;;5091561;28;20214;-48
2022/09/30 00:39:11;;;;;;;2.23;2.03;;;9.40;99.90;;;;;;5084850;28;20245;-50
2022/09/30 00:41:39;;;;;;;2.27;2.00;;;9.40;99.90;;;;;;5091639;28;20219;-50
2022/09/30 00:44:55;;;;;;;1.63;1.53;;;9.40;99.90;;;;;;5082985;28;20209;-49
2022/09/30 00:47:50;;;;;;;2.40;2.30;;;9.40;99.90;;;;;;5012393;28;20706;-49
2022/09/30 00:50:26;;;;;;;1.90;1.80;;;9.40;99.90;;;;;;5073074;28;20609;-49
2022/09/30 00:53:00;;;;;;;2.77;2.53;;;9.40;99.90;;;;;;5090903;28;20719;-48
2022/09/30 00:55:41;;;;;;;3.43;3.23;;;9.40;99.90;;;;;;5095746;28;20713;-49
2022/09/30 00:58:14;;;;;;;2.93;2.60;;;9.40;99.90;;;;;;5086936;28;20207;-49
2022/09/30 01:00:41;;;;;;;3.47;2.87;;;9.40;99.90;;;;;;5088571;28;20217;-48
2022/09/30 01:03:08;;;;;;;3.13;3.03;;;9.50;99.90;;;;;;5086918;28;20221;-49
2022/09/30 01:05:36;;;;;;;3.07;2.87;;;9.50;99.90;;;;;;5092016;28;20620;-48
2022/09/30 01:08:09;;;;;;;3.67;3.27;;;9.50;99.90;;;;;;5095859;28;20260;-48
2022/09/30 01:10:37;;;;;;;3.60;3.40;;;9.40;99.90;;;;;;5095410;28;20204;-49
2022/09/30 01:13:05;;;;;;;3.27;3.07;;;9.40;99.90;;;;;;5090996;28;20700;-49
2022/09/30 01:15:58;;;;;;;3.90;3.60;;;9.50;99.90;;;;;;5091157;28;20199;-48
2022/09/30 01:18:38;;;;;;;3.50;3.40;;;9.50;99.90;;;;;;5090044;28;20692;-49
2022/09/30 01:21:40;;;;;;;3.73;2.90;;;9.50;99.90;;;;;;5075058;28;20211;-50
2022/09/30 01:24:36;;;;;;;2.90;2.80;;;9.50;99.90;;;;;;5057593;28;20211;-48
2022/09/30 01:27:20;;;;;;;2.27;2.17;;;9.50;99.90;;;;;;5085013;28;20202;-48
2022/09/30 01:30:06;;;;;;;3.57;3.37;;;9.50;99.90;;;;;;5083915;28;20235;-49
2022/09/30 01:33:04;;;;;;;3.10;2.90;;;9.50;99.90;;;;;;5095087;28;20220;-49
2022/09/30 01:35:40;;;;;;;4.70;3.87;;;9.60;99.90;;;;;;5092472;28;20211;-49
2022/09/30 01:38:15;;;;;;;3.90;3.60;;;9.60;99.90;;;;;;5087085;28;20220;-49
2022/09/30 01:40:49;;;;;;;3.93;3.70;;;9.60;99.90;;;;;;5085120;28;20647;-49
2022/09/30 01:43:30;;;;;;;4.87;4.47;;;9.60;99.90;;;;;;5085944;28;20221;-49
2022/09/30 01:46:01;;;;;;;4.10;3.83;;;9.60;99.90;;;;;;5093052;28;20199;-48
2022/09/30 01:48:40;;;;;;;4.00;3.70;;;9.60;99.90;;;;;;5094369;28;20213;-49
2022/09/30 01:51:12;;;;;;;3.97;3.73;;;9.60;99.90;;;;;;5085308;28;20211;-48
2022/09/30 01:53:45;;;;;;;4.40;4.10;;;9.60;99.90;;;;;;5091217;28;20203;-50
2022/09/30 01:56:17;;;;;;;4.57;4.27;;;9.60;99.90;;;;;;5078398;28;20203;-48
2022/09/30 01:58:51;;;;;;;4.40;4.10;;;9.60;99.90;;;;;;5092006;28;20604;-49
2022/09/30 02:01:24;;;;;;;4.63;4.33;;;9.70;99.90;;;;;;5094538;28;20290;-49
2022/09/30 02:03:56;;;;;;;11.17;4.47;;;9.60;99.90;;;;;;5092399;28;20243;-48
2022/09/30 02:06:28;;;;;;;4.70;4.27;;;9.60;99.90;;;;;;5084551;28;20672;-48
2022/09/30 02:08:59;;;;;;;4.10;3.90;;;9.60;99.90;;;;;;5091434;28;20226;-48
2022/09/30 02:11:28;;;;;;;4.30;4.10;;;9.60;99.90;;;;;;5081699;28;20198;-49
2022/09/30 02:14:01;;;;;;;4.53;4.27;;;9.60;99.90;;;;;;5094167;28;20199;-49
2022/09/30 02:16:40;;;;;;;5.33;5.00;;;9.60;99.90;;;;;;5094420;28;20219;-49
2022/09/30 02:19:19;;;;;;;6.17;5.67;;;9.60;99.90;;;;;;5088279;28;20229;-49
2022/09/30 02:21:52;;;;;;;4.80;4.50;;;9.70;99.90;;;;;;5091710;28;20688;-49
2022/09/30 02:24:24;;;;;;;4.50;4.20;;;9.70;99.90;;;;;;5090427;28;20203;-49
2022/09/30 02:26:55;;;;;;;4.93;4.63;;;9.60;99.90;;;;;;5090367;28;20254;-49
2022/09/30 02:29:27;;;;;;;5.03;4.73;;;9.70;99.90;;;;;;5094034;28;20216;-48
2022/09/30 02:32:00;;;;;;;5.13;4.83;;;9.60;99.90;;;;;;5088529;28;20231;-48
2022/09/30 02:34:32;;;;;;;4.90;4.60;;;9.60;99.90;;;;;;5089411;28;20211;-49
2022/09/30 02:37:04;;;;;;;5.50;5.10;;;9.60;99.90;;;;;;5091755;28;20697;-49
2022/09/30 02:39:41;;;;;;;6.00;5.50;;;9.60;99.90;;;;;;5085168;28;20725;-48
2022/09/30 02:42:13;;;;;;;6.07;5.67;;;9.60;99.90;;;;;;5086059;28;20758;-48
2022/09/30 02:44:41;;;;;;;4.40;4.20;;;9.60;99.90;;;;;;5087057;28;20211;-50
2022/09/30 02:47:14;;;;;;;4.50;4.20;;;9.60;99.90;;;;;;5093634;28;20707;-49
2022/09/30 02:49:49;;;;;;;4.03;3.83;;;9.60;99.90;;;;;;5093332;28;20228;-49
2022/09/30 02:52:27;;;;;;;4.97;4.67;;;9.60;99.90;;;;;;5089167;28;20331;-49
2022/09/30 02:55:09;;;;;;;5.10;4.83;;;9.60;99.90;;;;;;5086307;28;20666;-49
2022/09/30 02:57:43;;;;;;;4.23;4.03;;;9.60;99.90;;;;;;5090850;28;20207;-48
2022/09/30 03:00:12;;;;;;;5.77;5.40;;;9.60;99.90;;;;;;5093481;28;20218;-49
2022/09/30 03:02:39;;;;;;;6.10;5.60;;;9.60;99.90;;;;;;5093232;28;20366;-49
2022/09/30 03:05:09;;;;;;;6.63;6.13;;;9.60;99.90;;;;;;5089827;28;20715;-49
2022/09/30 03:07:37;;;;;;;5.73;5.33;;;9.60;99.90;;;;;;5078371;28;20310;-49
2022/09/30 03:10:13;;;;;;;6.30;5.90;;;9.60;99.90;;;;;;5084243;28;20216;-49
2022/09/30 03:12:49;;;;;;;15.03;8.27;;;9.60;99.90;;;;;;5092355;28;20590;-49
2022/09/30 03:15:38;;;;;;;6.73;6.23;;;9.70;99.90;;;;;;5092931;28;20194;-49
2022/09/30 03:18:22;;;;;;;6.97;6.37;;;9.70;99.90;;;;;;5093143;28;20236;-49
2022/09/30 03:21:02;;;;;;;6.47;5.97;;;9.70;99.90;;;;;;5089058;28;20230;-49
2022/09/30 03:24:17;;;;;;;6.73;6.20;;;9.70;99.90;;;;;;5083470;28;20707;-49
2022/09/30 03:26:53;;;;;;;6.07;5.57;;;9.70;99.90;;;;;;5013312;28;20288;-49
2022/09/30 03:29:31;;;;;;;6.67;6.17;;;9.70;99.90;;;;;;5082082;28;20275;-49
2022/09/30 03:32:10;;;;;;;7.53;6.83;;;9.70;99.90;;;;;;5092780;28;20202;-49
2022/09/30 03:34:56;;;;;;;8.37;7.67;;;9.70;99.90;;;;;;5085023;28;20224;-49
2022/09/30 03:37:29;;;;;;;7.97;7.23;;;9.70;99.90;;;;;;5084453;28;20203;-49
2022/09/30 03:40:01;;;;;;;8.57;7.27;;;9.70;99.90;;;;;;5090496;28;20602;-49
2022/09/30 03:42:34;;;;;;;8.23;7.53;;;9.80;99.90;;;;;;5084414;28;20229;-49
2022/09/30 03:45:07;;;;;;;7.60;6.97;;;9.80;99.90;;;;;;5079348;28;20197;-48
2022/09/30 03:47:37;;;;;;;7.47;6.87;;;9.80;99.90;;;;;;5082393;28;20206;-49
2022/09/30 03:50:09;;;;;;;8.33;7.60;;;9.80;99.90;;;;;;5075741;28;20224;-50
2022/09/30 03:52:38;;;;;;;7.87;7.33;;;9.80;99.90;;;;;;5092530;28;20194;-48
2022/09/30 03:55:10;;;;;;;7.80;7.20;;;9.80;99.90;;;;;;5092354;28;20730;-48
2022/09/30 03:57:37;;;;;;;7.77;7.07;;;9.70;99.90;;;;;;5092114;28;20660;-49
2022/09/30 04:00:06;;;;;;;8.50;7.70;;;9.70;99.90;;;;;;5088755;28;20629;-48
2022/09/30 04:02:36;;;;;;;7.33;6.73;;;9.70;99.90;;;;;;5080587;28;20230;-49
2022/09/30 04:05:04;;;;;;;7.73;7.10;;;9.70;99.90;;;;;;5075805;28;20226;-49
2022/09/30 04:07:31;;;;;;;8.07;7.37;;;9.70;99.90;;;;;;5092228;28;20220;-48
2022/09/30 04:09:59;;;;;;;7.10;6.53;;;9.70;99.90;;;;;;5092265;28;20235;-49
2022/09/30 04:12:26;;;;;;;8.07;6.60;;;9.70;99.90;;;;;;5086365;28;20209;-49
2022/09/30 04:14:53;;;;;;;7.87;7.17;;;9.70;99.90;;;;;;5090705;28;20197;-49
2022/09/30 04:17:21;;;;;;;6.27;5.77;;;9.80;99.90;;;;;;5091274;28;20193;-48
2022/09/30 04:19:47;;;;;;;6.90;6.27;;;9.70;99.90;;;;;;5087415;28;20715;-49
2022/09/30 04:22:15;;;;;;;8.33;7.47;;;9.60;99.90;;;;;;5091739;28;20226;-50
2022/09/30 04:24:42;;;;;;;8.87;8.07;;;9.60;99.90;;;;;;5089074;28;20203;-49
2022/09/30 04:27:10;;;;;;;8.97;8.17;;;9.60;99.90;;;;;;5091890;28;20210;-48
2022/09/30 04:29:37;;;;;;;7.57;6.97;;;9.60;99.90;;;;;;5087857;28;20278;-48
2022/09/30 04:32:04;;;;;;;9.67;8.93;;;9.60;99.90;;;;;;5071579;28;20203;-49
2022/09/30 04:34:31;;;;;;;8.77;8.13;;;9.60;99.90;;;;;;5078637;28;20616;-49
2022/09/30 04:36:58;;;;;;;7.87;7.17;;;9.50;99.90;;;;;;5083053;28;20256;-48
2022/09/30 04:39:25;;;;;;;6.57;6.07;;;9.50;99.90;;;;;;5086186;28;20219;-48
2022/09/30 04:41:53;;;;;;;8.23;7.60;;;9.50;99.90;;;;;;5084552;28;20255;-49
2022/09/30 04:44:22;;;;;;;6.63;6.13;;;9.50;99.90;;;;;;5078999;28;20679;-48
2022/09/30 04:46:49;;;;;;;8.33;7.53;;;9.50;99.90;;;;;;5089665;28;20666;-49
2022/09/30 04:49:16;;;;;;;8.30;7.50;;;9.50;99.90;;;;;;5083198;28;20229;-48
2022/09/30 04:51:44;;;;;;;9.83;8.87;;;9.50;99.90;;;;;;5077069;28;20297;-49
2022/09/30 04:54:12;;;;;;;8.43;7.60;;;9.40;99.90;;;;;;5075050;28;20194;-49
2022/09/30 04:56:39;;;;;;;8.03;7.40;;;9.50;99.90;;;;;;5081972;28;20283;-49
2022/09/30 04:59:07;;;;;;;8.87;8.00;;;9.50;99.90;;;;;;5078527;28;20288;-49
2022/09/30 05:01:35;;;;;;;7.60;6.90;;;9.50;99.90;;;;;;5074358;28;20204;-48
2022/09/30 05:04:09;;;;;;;9.30;7.40;;;9.40;99.90;;;;;;5088418;28;20560;-48
2022/09/30 05:06:36;;;;;;;7.60;6.90;;;9.40;99.90;;;;;;5082653;28;20649;-48
2022/09/30 05:09:03;;;;;;;7.17;6.53;;;9.40;99.90;;;;;;5084936;28;20255;-48
2022/09/30 05:11:30;;;;;;;6.83;6.33;;;9.40;99.90;;;;;;5091396;28;20600;-48
2022/09/30 05:14:00;;;;;;;7.00;6.33;;;9.40;99.90;;;;;;5089066;28;20206;-48
2022/09/30 05:16:27;;;;;;;10.67;9.57;;;9.40;99.90;;;;;;5091240;28;20254;-48
2022/09/30 05:18:56;;;;;;;9.23;8.33;;;9.50;99.90;;;;;;5085451;28;20222;-49
2022/09/30 05:21:27;;;;;;;8.40;7.60;;;9.50;99.90;;;;;;5088202;28;20189;-48
2022/09/30 05:23:54;;;;;;;10.13;9.13;;;9.50;99.90;;;;;;5090805;28;20303;-49
2022/09/30 05:26:21;;;;;;;9.77;8.73;;;9.60;99.90;;;;;;5089929;28;20213;-48
2022/09/30 05:28:48;;;;;;;12.27;8.43;;;9.60;99.90;;;;;;5089495;28;20275;-48
2022/09/30 05:31:15;;;;;;;9.07;8.23;;;9.60;99.90;;;;;;5079884;28;20243;-49
2022/09/30 05:33:42;;;;;;;9.13;7.87;;;9.60;99.90;;;;;;5087729;28;20228;-49
2022/09/30 05:36:14;;;;;;;7.57;6.87;;;9.60;99.90;;;;;;5087879;28;20199;-49
2022/09/30 05:38:41;;;;;;;8.98;8.15;;;9.50;99.90;;;;;;5093529;28;20906;-48
2022/09/30 05:41:13;;;;;;;8.53;7.53;;;9.60;99.90;;;;;;5092852;28;20200;-48
2022/09/30 05:43:44;;;;;;;9.33;8.27;;;9.60;99.90;;;;;;5079372;28;20769;-48
2022/09/30 05:46:11;;;;;;;14.63;10.13;;;9.60;99.90;;;;;;5077843;28;20227;-48
2022/09/30 05:48:38;;;;;;;12.97;11.13;;;9.60;99.90;;;;;;5090876;28;20253;-48
2022/09/30 05:51:06;;;;;;;12.47;10.93;;;9.60;99.90;;;;;;5094320;28;20208;-49
2022/09/30 05:53:38;;;;;;;11.67;10.67;;;9.60;99.90;;;;;;5089289;28;20198;-48
2022/09/30 05:56:06;;;;;;;11.23;10.10;;;9.60;99.90;;;;;;5079405;28;20646;-48
2022/09/30 05:58:36;;;;;;;11.73;10.60;;;9.60;99.90;;;;;;5086984;28;20226;-49
2022/09/30 06:01:07;;;;;;;16.65;14.38;;;9.60;99.90;;;;;;5080523;28;20388;-49
2022/09/30 06:03:35;;;;;;;15.07;13.63;;;9.70;99.90;;;;;;5092767;28;20246;-49
2022/09/30 06:06:02;;;;;;;13.60;12.20;;;9.70;99.90;;;;;;5093487;28;20200;-49
2022/09/30 06:08:32;;;;;;;13.77;12.37;;;9.70;99.90;;;;;;5090641;28;20599;-49
2022/09/30 06:11:01;;;;;;;12.43;11.13;;;9.70;99.90;;;;;;5091986;28;20305;-49
2022/09/30 06:13:29;;;;;;;12.37;9.90;;;9.80;99.90;;;;;;5086306;28;20596;-48
2022/09/30 06:15:57;;;;;;;12.10;9.57;;;9.80;99.90;;;;;;5086204;28;20203;-48
2022/09/30 06:18:26;;;;;;;10.50;9.50;;;9.80;99.90;;;;;;5086447;28;20213;-48
2022/09/30 06:20:55;;;;;;;10.73;9.23;;;9.80;99.90;;;;;;5090604;28;20203;-48
2022/09/30 06:23:22;;;;;;;10.63;9.53;;;9.80;99.90;;;;;;5088759;28;20238;-48
2022/09/30 06:25:50;;;;;;;11.50;10.13;;;9.90;99.90;;;;;;5088539;28;20554;-49
2022/09/30 06:28:19;;;;;;;12.47;11.17;;;9.90;99.90;;;;;;5078535;28;20202;-48
2022/09/30 06:30:46;;;;;;;12.53;10.40;;;9.90;99.90;;;;;;5081191;28;20230;-49
2022/09/30 06:33:14;;;;;;;11.27;10.17;;;9.90;99.90;;;;;;5082465;28;20189;-48
2022/09/30 06:35:42;;;;;;;10.77;9.77;;;10.00;99.90;;;;;;5084373;28;20263;-49
2022/09/30 06:38:09;;;;;;;12.03;10.63;;;10.00;99.90;;;;;;5088248;28;20207;-49
2022/09/30 06:40:36;;;;;;;14.13;10.10;;;10.00;99.90;;;;;;5087201;28;20204;-48
2022/09/30 06:43:04;;;;;;;11.60;10.50;;;10.00;99.90;;;;;;5087247;28;20225;-48
2022/09/30 06:45:34;;;;;;;12.57;10.80;;;10.00;99.90;;;;;;5086766;28;20211;-48
2022/09/30 06:48:04;;;;;;;9.83;8.87;;;10.00;99.90;;;;;;5083611;28;20290;-48
2022/09/30 06:50:32;;;;;;;13.67;10.63;;;10.10;99.90;;;;;;5090299;28;20237;-48
2022/09/30 06:52:59;;;;;;;12.97;11.13;;;10.10;99.90;;;;;;5089241;28;20272;-48
2022/09/30 06:55:27;;;;;;;11.53;10.30;;;10.10;99.90;;;;;;5091016;28;20211;-48
2022/09/30 06:57:55;;;;;;;16.43;9.43;;;10.10;99.90;;;;;;5077043;28;20226;-49
2022/09/30 07:00:22;;;;;;;9.73;8.70;;;10.10;99.90;;;;;;5093364;28;20752;-48
2022/09/30 07:02:51;;;;;;;9.70;8.80;;;10.20;99.90;;;;;;5085706;28;20211;-49
2022/09/30 07:05:18;;;;;;;9.47;8.20;;;10.20;99.90;;;;;;5091776;28;20210;-48
2022/09/30 07:07:46;;;;;;;9.30;8.40;;;10.30;99.90;;;;;;5080605;28;20218;-49
2022/09/30 07:10:13;;;;;;;9.17;8.27;;;10.20;99.90;;;;;;5072599;28;20219;-49
2022/09/30 07:12:41;;;;;;;7.80;7.17;;;10.30;99.90;;;;;;5085205;28;20582;-50
2022/09/30 07:15:09;;;;;;;7.50;6.80;;;10.30;99.90;;;;;;5093238;28;20203;-48
2022/09/30 07:17:36;;;;;;;8.90;7.93;;;10.30;99.90;;;;;;5093233;28;20249;-48
2022/09/30 07:20:07;;;;;;;8.40;7.47;;;10.30;99.90;;;;;;5088576;28;20708;-48
2022/09/30 07:22:34;;;;;;;8.33;7.53;;;10.40;99.90;;;;;;5088333;28;20261;-49
2022/09/30 07:25:04;;;;;;;9.17;8.17;;;10.30;99.90;;;;;;5078993;28;20217;-49
2022/09/30 07:27:33;;;;;;;9.10;8.20;;;10.40;99.90;;;;;;5085742;28;20208;-49
2022/09/30 07:30:01;;;;;;;7.83;7.17;;;10.40;99.90;;;;;;5092405;28;20215;-49
2022/09/30 07:32:28;;;;;;;6.23;5.73;;;10.40;99.90;;;;;;5088165;28;20203;-50
2022/09/30 07:34:55;;;;;;;6.50;5.70;;;10.40;99.90;;;;;;5080959;28;20237;-49
2022/09/30 07:37:25;;;;;;;7.37;6.87;;;10.40;99.90;;;;;;5086054;28;20199;-49
2022/09/30 07:39:52;;;;;;;7.60;6.77;;;10.40;99.90;;;;;;5091459;28;20219;-48
2022/09/30 07:42:20;;;;;;;8.47;7.57;;;10.50;99.90;;;;;;5088935;28;20212;-49
2022/09/30 07:44:47;;;;;;;9.13;7.23;;;10.50;99.90;;;;;;5092473;28;20220;-48
2022/09/30 07:47:15;;;;;;;6.63;6.03;;;10.60;99.90;;;;;;5088134;28;20197;-49
2022/09/30 07:49:43;;;;;;;6.73;6.17;;;10.60;99.90;;;;;;5084031;28;20231;-49
2022/09/30 07:52:11;;;;;;;6.80;6.10;;;10.70;99.90;;;;;;5089160;28;20210;-48
2022/09/30 07:54:42;;;;;;;7.70;6.97;;;10.70;99.90;;;;;;5090241;28;20666;-49
2022/09/30 07:57:09;;;;;;;6.97;6.47;;;10.70;99.90;;;;;;5090616;28;20201;-48
2022/09/30 07:59:39;;;;;;;7.20;6.50;;;10.70;99.90;;;;;;5087429;28;20253;-48
2022/09/30 08:02:07;;;;;;;7.47;6.77;;;10.80;99.90;;;;;;5086325;28;20205;-48
2022/09/30 08:04:34;;;;;;;7.73;7.00;;;10.80;99.90;;;;;;5087520;28;20226;-48
2022/09/30 08:07:02;;;;;;;8.57;7.60;;;10.90;99.90;;;;;;5077900;28;20195;-48
2022/09/30 08:09:30;;;;;;;8.80;7.80;;;11.00;99.90;;;;;;5086843;28;20223;-48
2022/09/30 08:11:58;;;;;;;7.87;7.27;;;11.00;99.90;;;;;;5091947;28;20245;-48
2022/09/30 08:14:27;;;;;;;7.87;7.13;;;11.00;99.90;;;;;;5085204;28;20205;-49
2022/09/30 08:16:55;;;;;;;9.50;8.60;;;11.10;99.90;;;;;;5077372;28;20246;-48
2022/09/30 08:19:24;;;;;;;8.87;7.97;;;11.10;99.90;;;;;;5082889;28;20227;-49
2022/09/30 08:21:52;;;;;;;10.17;9.03;;;11.20;99.90;;;;;;5088998;28;20294;-49
2022/09/30 08:24:20;;;;;;;9.97;8.93;;;11.30;99.90;;;;;;5078166;28;20218;-49
2022/09/30 08:26:48;;;;;;;8.53;7.67;;;11.30;99.90;;;;;;5090648;28;20207;-48
2022/09/30 08:29:16;;;;;;;10.53;8.27;;;11.40;99.90;;;;;;5090568;28;20943;-48
2022/09/30 08:31:43;;;;;;;8.67;7.43;;;11.30;99.90;;;;;;5086760;28;20204;-49
2022/09/30 08:34:10;;;;;;;7.93;7.23;;;11.40;99.90;;;;;;5070600;28;20653;-49
2022/09/30 08:36:37;;;;;;;9.43;7.33;;;11.40;99.90;;;;;;5070777;28;20203;-50
2022/09/30 08:39:05;;;;;;;7.80;7.20;;;11.50;99.90;;;;;;5073957;28;20216;-49
2022/09/30 08:41:56;;;;;;;6.70;6.10;;;11.50;99.90;;;;;;5090565;28;20191;-49
2022/09/30 08:44:39;;;;;;;7.03;6.47;;;11.60;99.90;;;;;;5090395;28;20269;-49
2022/09/30 08:47:26;;;;;;;6.93;6.33;;;11.70;99.90;;;;;;5090944;28;20200;-49
2022/09/30 08:50:03;;;;;;;8.80;8.00;;;11.70;99.90;;;;;;5076557;28;20231;-49
2022/09/30 08:52:35;;;;;;;11.00;9.80;;;11.70;99.90;;;;;;5088466;28;20289;-49
2022/09/30 08:55:02;;;;;;;9.30;8.40;;;11.80;99.90;;;;;;5084399;28;20726;-49
2022/09/30 08:57:36;;;;;;;10.73;9.47;;;11.90;99.90;;;;;;5090692;28;20196;-49
2022/09/30 09:00:09;;;;;;;10.93;9.83;;;12.00;99.90;;;;;;5070336;28;20223;-49
2022/09/30 09:02:44;;;;;;;12.07;10.80;;;12.10;99.90;;;;;;5070294;28;20209;-49
2022/09/30 09:05:18;;;;;;;22.73;18.27;;;12.10;99.90;;;;;;5069257;28;20233;-48
2022/09/30 09:07:55;;;;;;;13.67;12.30;;;12.20;99.90;;;;;;5070590;28;20208;-49
2022/09/30 09:10:33;;;;;;;10.83;9.83;;;12.30;99.90;;;;;;5073003;28;20230;-48
2022/09/30 09:13:13;;;;;;;10.40;9.37;;;12.30;99.90;;;;;;5082716;28;20282;-48
2022/09/30 09:15:57;;;;;;;14.33;10.93;;;12.20;99.90;;;;;;5085382;28;20196;-50
2022/09/30 09:18:52;;;;;;;14.90;13.40;;;12.20;99.90;;;;;;5095467;28;20199;-49
2022/09/30 09:21:28;;;;;;;14.93;13.33;;;12.30;99.90;;;;;;5095450;28;20204;-48
2022/09/30 09:24:00;;;;;;;15.87;13.70;;;12.40;99.90;;;;;;5094982;28;20220;-49
2022/09/30 09:26:30;;;;;;;16.87;14.17;;;12.50;99.90;;;;;;5092032;28;20623;-48
2022/09/30 09:29:09;;;;;;;14.43;13.00;;;12.40;99.90;;;;;;5086418;28;20281;-48
2022/09/30 09:31:37;;;;;;;15.60;12.70;;;12.50;99.90;;;;;;5095140;28;20242;-49
2022/09/30 09:34:10;;;;;;;13.77;12.37;;;12.40;99.90;;;;;;5094831;28;20578;-48
2022/09/30 09:36:51;;;;;;;13.90;12.60;;;12.50;99.90;;;;;;5095293;28;20204;-48
2022/09/30 09:39:51;;;;;;;14.73;13.07;;;12.50;99.90;;;;;;5090191;28;20261;-50
2022/09/30 09:42:34;;;;;;;19.43;16.20;;;12.50;99.90;;;;;;5086292;28;20211;-49
2022/09/30 09:45:08;;;;;;;17.87;15.97;;;12.70;99.90;;;;;;5094879;28;20280;-49
2022/09/30 09:47:36;;;;;;;15.33;13.70;;;12.60;99.90;;;;;;5094939;28;20208;-48
2022/09/30 09:50:14;;;;;;;16.17;14.23;;;12.50;99.90;;;;;;5090593;28;20227;-49
2022/09/30 09:53:09;;;;;;;20.37;16.00;;;12.50;99.90;;;;;;5090022;28;20204;-48
2022/09/30 09:55:37;;;;;;;14.63;13.10;;;12.40;99.90;;;;;;5094968;28;20263;-49
2022/09/30 09:58:09;;;;;;;16.07;13.40;;;12.40;99.90;;;;;;5094823;28;20204;-49
2022/09/30 10:03:25;;;;;;;14.13;12.07;;;12.50;99.90;;;;;;5088461;28;20257;-48
2022/09/30 10:06:04;;;;;;;16.20;14.07;;;12.60;99.90;;;;;;5093166;28;20222;-49
2022/09/30 10:08:33;;;;;;;12.10;10.90;;;12.60;99.90;;;;;;5091859;28;20763;-48
2022/09/30 10:11:03;;;;;;;14.13;11.83;;;12.60;99.90;;;;;;5080704;28;20261;-48
2022/09/30 10:13:32;;;;;;;14.03;11.83;;;12.70;99.90;;;;;;5073726;28;20275;-49
2022/09/30 10:16:01;;;;;;;14.40;12.87;;;12.70;99.90;;;;;;5074462;28;20194;-49
2022/09/30 10:18:35;;;;;;;14.13;12.63;;;12.70;99.90;;;;;;5080655;28;20199;-49
2022/09/30 10:21:07;;;;;;;15.23;13.63;;;12.60;99.90;;;;;;5086166;28;20203;-48
2022/09/30 10:23:37;;;;;;;14.73;12.47;;;12.60;99.90;;;;;;5093951;28;20252;-49
2022/09/30 10:26:17;;;;;;;14.00;12.63;;;12.70;99.90;;;;;;5094191;28;20192;-49
2022/09/30 10:28:46;;;;;;;15.63;13.00;;;12.60;99.90;;;;;;5094216;28;20216;-49
2022/09/30 10:31:17;;;;;;;13.30;11.97;;;12.70;99.90;;;;;;5094202;28;20205;-49
2022/09/30 10:33:48;;;;;;;14.80;13.20;;;12.70;99.90;;;;;;5084063;28;20595;-49
2022/09/30 10:36:17;;;;;;;14.27;12.77;;;12.80;99.90;;;;;;5094021;28;20236;-48
2022/09/30 10:38:58;;;;;;;13.20;11.83;;;12.90;99.90;;;;;;5093962;28;20221;-49
2022/09/30 10:41:28;;;;;;;13.70;12.37;;;12.90;99.90;;;;;;5077835;28;20209;-48
2022/09/30 10:43:59;;;;;;;16.53;14.73;;;12.90;99.90;;;;;;5092513;28;20623;-48
2022/09/30 10:46:29;;;;;;;16.77;12.77;;;13.00;99.90;;;;;;5093802;28;20276;-49
2022/09/30 10:48:59;;;;;;;14.20;12.80;;;12.90;99.90;;;;;;5093638;28;20232;-48
2022/09/30 10:51:35;;;;;;;14.67;12.70;;;12.90;99.90;;;;;;5093769;28;20196;-50
2022/09/30 10:54:03;;;;;;;12.63;11.33;;;12.90;99.90;;;;;;5092537;28;20214;-49
2022/09/30 10:56:41;;;;;;;14.20;12.73;;;12.90;99.90;;;;;;5088991;28;20203;-49
2022/09/30 10:59:35;;;;;;;12.73;11.43;;;13.00;99.90;;;;;;5073190;28;20289;-48
2022/09/30 11:02:21;;;;;;;12.70;11.20;;;13.10;99.90;;;;;;5054942;28;20215;-50
2022/09/30 11:04:57;;;;;;;14.30;12.80;;;13.00;99.90;;;;;;5072972;28;20293;-48
2022/09/30 11:07:29;;;;;;;13.37;11.97;;;12.90;99.90;;;;;;5073079;28;20676;-48
2022/09/30 11:10:02;;;;;;;9.63;8.77;;;12.90;99.90;;;;;;5073215;28;20224;-49
2022/09/30 11:12:38;;;;;;;10.60;9.70;;;12.90;99.90;;;;;;5079168;28;20242;-49
2022/09/30 11:15:12;;;;;;;8.33;7.70;;;13.00;99.90;;;;;;5078950;28;20200;-49
2022/09/30 11:17:49;;;;;;;8.30;7.60;;;13.10;99.90;;;;;;5074962;28;20196;-48
2022/09/30 11:20:22;;;;;;;8.60;7.67;;;13.10;99.90;;;;;;5088723;28;20295;-49
2022/09/30 11:22:55;;;;;;;8.47;7.77;;;13.20;99.90;;;;;;5077175;28;20212;-48
2022/09/30 11:25:28;;;;;;;10.33;9.30;;;13.20;99.90;;;;;;5082028;28;20269;-49
2022/09/30 11:28:16;;;;;;;9.90;9.00;;;13.20;99.90;;;;;;5084165;28;20208;-48
2022/09/30 11:30:52;;;;;;;8.87;8.17;;;13.30;99.90;;;;;;5086798;28;20677;-49
2022/09/30 11:33:51;;;;;;;7.97;7.37;;;13.40;99.90;;;;;;5092046;28;20198;-49
2022/09/30 11:36:26;;;;;;;7.50;6.90;;;13.50;99.90;;;;;;5092712;28;20736;-48
2022/09/30 11:39:26;;;;;;;7.67;7.07;;;13.60;99.90;;;;;;5090526;28;20904;-50
2022/09/30 11:41:58;;;;;;;6.93;6.43;;;13.70;99.90;;;;;;5085902;28;20262;-48
2022/09/30 11:44:33;;;;;;;6.53;5.30;;;13.70;99.90;;;;;;5083136;28;20221;-49
2022/09/30 11:47:17;;;;;;;5.73;5.33;;;13.80;99.90;;;;;;5087349;28;20286;-48
2022/09/30 11:49:59;;;;;;;5.70;5.30;;;13.70;99.90;;;;;;5091121;28;20234;-49
2022/09/30 11:52:35;;;;;;;5.03;4.77;;;13.60;99.90;;;;;;5092641;28;20205;-48
2022/09/30 11:55:27;;;;;;;5.20;4.90;;;13.60;99.90;;;;;;5091168;28;20207;-48
2022/09/30 11:58:00;;;;;;;6.40;5.77;;;13.50;99.90;;;;;;5074878;28;20751;-48
2022/09/30 12:00:30;;;;;;;5.03;4.73;;;13.30;99.90;;;;;;5091196;28;20628;-49
2022/09/30 12:03:04;;;;;;;6.63;6.10;;;13.30;99.90;;;;;;5090156;28;20200;-49
2022/09/30 12:05:37;;;;;;;6.00;5.50;;;13.30;99.90;;;;;;5082098;28;20277;-48
2022/09/30 12:08:14;;;;;;;5.33;5.00;;;13.20;99.90;;;;;;5082900;28;20254;-48
2022/09/30 12:10:46;;;;;;;5.57;5.17;;;13.10;99.90;;;;;;5083782;28;20203;-48
2022/09/30 12:13:19;;;;;;;4.87;4.67;;;13.10;99.90;;;;;;5086797;28;20196;-48
2022/09/30 12:15:48;;;;;;;5.93;5.50;;;13.10;99.90;;;;;;5080911;28;20219;-48
2022/09/30 12:18:20;;;;;;;5.17;4.87;;;12.90;99.90;;;;;;5084263;28;20608;-49
2022/09/30 12:20:51;;;;;;;4.97;4.67;;;12.80;99.90;;;;;;5083602;28;20264;-49
2022/09/30 12:23:27;;;;;;;5.90;5.37;;;12.90;99.90;;;;;;5091966;28;20241;-48
2022/09/30 12:25:56;;;;;;;6.33;5.80;;;12.80;99.90;;;;;;5089931;28;20216;-49
2022/09/30 12:31:42;;;;;;;5.53;5.03;;;12.60;99.90;;;;;;5072228;28;20207;-49
2022/09/30 12:34:25;;;;;;;5.57;5.27;;;12.60;99.90;;;;;;5078863;28;20192;-48
2022/09/30 12:37:15;;;;;;;6.50;6.00;;;12.60;99.90;;;;;;5087989;28;20291;-48
2022/09/30 12:40:13;;;;;;;5.20;4.63;;;12.70;99.90;;;;;;5083424;28;20311;-49
2022/09/30 12:42:58;;;;;;;6.30;5.90;;;12.70;99.90;;;;;;5077321;28;20200;-48
2022/09/30 12:45:59;;;;;;;5.30;5.00;;;12.70;99.90;;;;;;5087287;28;20218;-49
2022/09/30 12:48:39;;;;;;;6.00;5.50;;;12.60;99.90;;;;;;5077727;28;20210;-48
2022/09/30 12:51:06;;;;;;;4.73;4.43;;;12.60;99.90;;;;;;5078496;28;20194;-48
2022/09/30 12:53:38;;;;;;;5.47;5.07;;;12.50;99.90;;;;;;5091619;28;20610;-48
2022/09/30 12:56:10;;;;;;;5.07;4.77;;;12.50;99.90;;;;;;5090417;28;20242;-48
2022/09/30 12:58:42;;;;;;;5.23;4.93;;;12.50;99.90;;;;;;5091090;28;20229;-49
2022/09/30 13:01:15;;;;;;;6.23;5.73;;;12.50;99.90;;;;;;5094029;28;20198;-48
2022/09/30 13:03:50;;;;;;;5.50;5.20;;;12.50;99.90;;;;;;5091319;28;20669;-48
2022/09/30 13:06:19;;;;;;;5.57;5.17;;;12.70;99.90;;;;;;5094082;28;20214;-49
2022/09/30 13:09:08;;;;;;;5.17;4.87;;;12.90;99.90;;;;;;5093579;28;20266;-48
2022/09/30 13:11:45;;;;;;;6.07;5.47;;;13.00;99.90;;;;;;5093613;28;20203;-50
2022/09/30 13:14:32;;;;;;;8.90;6.17;;;13.10;99.90;;;;;;5093800;28;20203;-48
2022/09/30 13:17:29;;;;;;;5.63;5.20;;;13.30;99.90;;;;;;5092556;28;20192;-49
2022/09/30 13:19:57;;;;;;;4.73;4.53;;;13.50;99.90;;;;;;5070185;28;20232;-48
2022/09/30 13:22:55;;;;;;;4.77;4.47;;;13.60;99.90;;;;;;5077086;28;20216;-48
2022/09/30 13:25:22;;;;;;;6.67;6.27;;;13.80;99.90;;;;;;5090797;28;20216;-47